Terminal Aerodrome Forecast
Issued by NWS Wilmington, NC

Home | Current Version | Previous Version | Text Only | Print | Product List | Glossary On
Versions: 1 2 3 4 5 6 7 8 9 10 11 12 13 14 15 16
000
FTUS42 KILM 270500
TAFFLO
TAF
KFLO 270537Z 2706/2806 32011G18KT P6SM BKN040
     FM270700 32011G18KT P6SM SCT060
     FM271600 34009KT P6SM SKC=

USA.gov is the U.S. government's official web portal to all federal, state and local government web resources and services.